sensor_id;sensor_type;location;lat;lon;timestamp;P1;durP1;ratioP1;P2;durP2;ratioP2
12774;SDS011;6451;42.630;23.382;2022-12-07T00:01:17;46.80;;;27.53;;
12774;SDS011;6451;42.630;23.382;2022-12-07T00:03:46;43.00;;;28.40;;
12774;SDS011;6451;42.630;23.382;2022-12-07T00:06:14;44.93;;;27.97;;
12774;SDS011;6451;42.630;23.382;2022-12-07T00:08:43;40.53;;;25.87;;
12774;SDS011;6451;42.630;23.382;2022-12-07T00:11:13;41.73;;;25.70;;
12774;SDS011;6451;42.630;23.382;2022-12-07T00:13:41;42.27;;;27.70;;
12774;SDS011;6451;42.630;23.382;2022-12-07T00:16:09;39.07;;;26.77;;
12774;SDS011;6451;42.630;23.382;2022-12-07T00:18:38;42.70;;;26.23;;
12774;SDS011;6451;42.630;23.382;2022-12-07T00:21:06;43.97;;;26.97;;
12774;SDS011;6451;42.630;23.382;2022-12-07T00:23:36;41.17;;;26.87;;
12774;SDS011;6451;42.630;23.382;2022-12-07T00:26:06;42.40;;;27.50;;
12774;SDS011;6451;42.630;23.382;2022-12-07T00:28:33;45.40;;;27.80;;
12774;SDS011;6451;42.630;23.382;2022-12-07T00:31:01;42.73;;;27.57;;
12774;SDS011;6451;42.630;23.382;2022-12-07T00:33:30;42.83;;;26.83;;
12774;SDS011;6451;42.630;23.382;2022-12-07T00:36:00;38.57;;;25.03;;
12774;SDS011;6451;42.630;23.382;2022-12-07T00:38:28;41.17;;;27.17;;
12774;SDS011;6451;42.630;23.382;2022-12-07T00:40:56;44.00;;;28.07;;
12774;SDS011;6451;42.630;23.382;2022-12-07T00:43:25;43.13;;;26.90;;
12774;SDS011;6451;42.630;23.382;2022-12-07T00:45:53;37.93;;;24.20;;
12774;SDS011;6451;42.630;23.382;2022-12-07T00:48:20;38.67;;;24.50;;
12774;SDS011;6451;42.630;23.382;2022-12-07T00:50:48;39.30;;;24.63;;
12774;SDS011;6451;42.630;23.382;2022-12-07T00:53:15;39.97;;;25.07;;
12774;SDS011;6451;42.630;23.382;2022-12-07T00:55:43;34.73;;;24.03;;
12774;SDS011;6451;42.630;23.382;2022-12-07T00:58:10;41.33;;;25.10;;
12774;SDS011;6451;42.630;23.382;2022-12-07T01:00:39;36.90;;;23.83;;
12774;SDS011;6451;42.630;23.382;2022-12-07T01:03:09;34.90;;;22.30;;
12774;SDS011;6451;42.630;23.382;2022-12-07T01:05:37;36.93;;;21.57;;
12774;SDS011;6451;42.630;23.382;2022-12-07T01:08:04;33.27;;;21.70;;
12774;SDS011;6451;42.630;23.382;2022-12-07T01:10:32;30.60;;;21.57;;
12774;SDS011;6451;42.630;23.382;2022-12-07T01:12:59;36.17;;;21.90;;
12774;SDS011;6451;42.630;23.382;2022-12-07T01:15:27;30.73;;;21.30;;
12774;SDS011;6451;42.630;23.382;2022-12-07T01:17:55;30.37;;;20.07;;
12774;SDS011;6451;42.630;23.382;2022-12-07T01:20:22;31.70;;;19.90;;
12774;SDS011;6451;42.630;23.382;2022-12-07T01:22:49;28.37;;;19.77;;
12774;SDS011;6451;42.630;23.382;2022-12-07T01:25:15;32.80;;;20.50;;
12774;SDS011;6451;42.630;23.382;2022-12-07T01:27:43;37.17;;;23.23;;
12774;SDS011;6451;42.630;23.382;2022-12-07T01:30:10;34.17;;;22.43;;
12774;SDS011;6451;42.630;23.382;2022-12-07T01:32:38;36.00;;;22.20;;
12774;SDS011;6451;42.630;23.382;2022-12-07T01:35:07;32.60;;;20.53;;
12774;SDS011;6451;42.630;23.382;2022-12-07T01:37:34;30.10;;;20.03;;
12774;SDS011;6451;42.630;23.382;2022-12-07T01:40:02;30.37;;;20.33;;
12774;SDS011;6451;42.630;23.382;2022-12-07T01:42:31;28.33;;;19.87;;
12774;SDS011;6451;42.630;23.382;2022-12-07T01:48:04;30.30;;;18.50;;
12774;SDS011;6451;42.630;23.382;2022-12-07T01:50:33;29.40;;;18.93;;
12774;SDS011;6451;42.630;23.382;2022-12-07T01:53:02;26.67;;;18.33;;
12774;SDS011;6451;42.630;23.382;2022-12-07T01:55:33;32.30;;;19.30;;
12774;SDS011;6451;42.630;23.382;2022-12-07T01:58:02;39.40;;;23.90;;
12774;SDS011;6451;42.630;23.382;2022-12-07T02:00:30;37.33;;;25.53;;
12774;SDS011;6451;42.630;23.382;2022-12-07T02:03:00;44.10;;;26.70;;
12774;SDS011;6451;42.630;23.382;2022-12-07T02:05:33;39.77;;;24.83;;
12774;SDS011;6451;42.630;23.382;2022-12-07T02:08:02;43.77;;;27.83;;
12774;SDS011;6451;42.630;23.382;2022-12-07T02:10:30;48.57;;;28.77;;
12774;SDS011;6451;42.630;23.382;2022-12-07T02:12:59;46.43;;;28.53;;
12774;SDS011;6451;42.630;23.382;2022-12-07T02:15:30;47.33;;;27.37;;
12774;SDS011;6451;42.630;23.382;2022-12-07T02:18:08;44.67;;;27.57;;
12774;SDS011;6451;42.630;23.382;2022-12-07T02:20:42;44.77;;;29.13;;
12774;SDS011;6451;42.630;23.382;2022-12-07T02:29:09;46.47;;;28.73;;
12774;SDS011;6451;42.630;23.382;2022-12-07T02:31:42;47.43;;;29.57;;
12774;SDS011;6451;42.630;23.382;2022-12-07T02:34:14;46.33;;;28.73;;
12774;SDS011;6451;42.630;23.382;2022-12-07T02:36:51;47.93;;;28.83;;
12774;SDS011;6451;42.630;23.382;2022-12-07T02:39:24;43.53;;;29.03;;
12774;SDS011;6451;42.630;23.382;2022-12-07T02:41:55;42.80;;;28.07;;
12774;SDS011;6451;42.630;23.382;2022-12-07T02:44:30;48.67;;;28.37;;
12774;SDS011;6451;42.630;23.382;2022-12-07T02:46:59;42.70;;;27.40;;
12774;SDS011;6451;42.630;23.382;2022-12-07T02:49:29;41.90;;;28.90;;
12774;SDS011;6451;42.630;23.382;2022-12-07T02:51:57;49.17;;;27.87;;
12774;SDS011;6451;42.630;23.382;2022-12-07T02:54:24;47.80;;;29.33;;
12774;SDS011;6451;42.630;23.382;2022-12-07T02:56:52;43.23;;;29.03;;
12774;SDS011;6451;42.630;23.382;2022-12-07T02:59:26;47.00;;;27.87;;
12774;SDS011;6451;42.630;23.382;2022-12-07T03:02:07;42.90;;;28.33;;
12774;SDS011;6451;42.630;23.382;2022-12-07T03:04:45;47.83;;;29.90;;
12774;SDS011;6451;42.630;23.382;2022-12-07T03:07:21;41.87;;;28.77;;
12774;SDS011;6451;42.630;23.382;2022-12-07T03:09:57;45.80;;;28.67;;
12774;SDS011;6451;42.630;23.382;2022-12-07T03:12:29;45.67;;;27.97;;
12774;SDS011;6451;42.630;23.382;2022-12-07T03:15:03;47.00;;;27.03;;
12774;SDS011;6451;42.630;23.382;2022-12-07T03:17:37;40.33;;;25.67;;
12774;SDS011;6451;42.630;23.382;2022-12-07T03:20:09;43.97;;;28.37;;
12774;SDS011;6451;42.630;23.382;2022-12-07T03:22:39;41.50;;;28.10;;
12774;SDS011;6451;42.630;23.382;2022-12-07T03:25:10;45.13;;;28.17;;
12774;SDS011;6451;42.630;23.382;2022-12-07T03:27:41;41.93;;;26.80;;
12774;SDS011;6451;42.630;23.382;2022-12-07T03:30:15;42.37;;;27.37;;
12774;SDS011;6451;42.630;23.382;2022-12-07T03:32:47;45.87;;;28.50;;
12774;SDS011;6451;42.630;23.382;2022-12-07T03:35:20;40.47;;;26.17;;
12774;SDS011;6451;42.630;23.382;2022-12-07T03:37:51;44.77;;;27.23;;
12774;SDS011;6451;42.630;23.382;2022-12-07T03:40:22;40.47;;;26.73;;
12774;SDS011;6451;42.630;23.382;2022-12-07T03:42:54;44.90;;;27.60;;
12774;SDS011;6451;42.630;23.382;2022-12-07T03:45:30;42.10;;;27.83;;
12774;SDS011;6451;42.630;23.382;2022-12-07T03:48:05;43.17;;;26.63;;
12774;SDS011;6451;42.630;23.382;2022-12-07T03:50:38;42.27;;;26.23;;
12774;SDS011;6451;42.630;23.382;2022-12-07T03:53:11;38.73;;;25.73;;
12774;SDS011;6451;42.630;23.382;2022-12-07T03:55:44;40.87;;;24.97;;
12774;SDS011;6451;42.630;23.382;2022-12-07T03:58:15;41.40;;;25.40;;
12774;SDS011;6451;42.630;23.382;2022-12-07T04:00:47;39.17;;;25.30;;
12774;SDS011;6451;42.630;23.382;2022-12-07T04:03:16;38.00;;;25.33;;
12774;SDS011;6451;42.630;23.382;2022-12-07T04:05:43;41.70;;;26.73;;
12774;SDS011;6451;42.630;23.382;2022-12-07T04:08:10;41.80;;;28.03;;
12774;SDS011;6451;42.630;23.382;2022-12-07T04:10:38;44.90;;;26.33;;
12774;SDS011;6451;42.630;23.382;2022-12-07T04:13:06;38.07;;;26.03;;
12774;SDS011;6451;42.630;23.382;2022-12-07T04:15:33;45.80;;;26.20;;
12774;SDS011;6451;42.630;23.382;2022-12-07T04:18:01;43.50;;;26.37;;
12774;SDS011;6451;42.630;23.382;2022-12-07T04:20:29;41.53;;;26.57;;
12774;SDS011;6451;42.630;23.382;2022-12-07T04:22:56;42.40;;;26.97;;
12774;SDS011;6451;42.630;23.382;2022-12-07T04:25:23;40.50;;;26.83;;
12774;SDS011;6451;42.630;23.382;2022-12-07T04:27:50;38.33;;;25.97;;
12774;SDS011;6451;42.630;23.382;2022-12-07T04:30:17;39.83;;;26.43;;
12774;SDS011;6451;42.630;23.382;2022-12-07T04:32:44;40.73;;;26.10;;
12774;SDS011;6451;42.630;23.382;2022-12-07T04:35:14;41.80;;;27.80;;
12774;SDS011;6451;42.630;23.382;2022-12-07T04:37:41;39.80;;;26.70;;
12774;SDS011;6451;42.630;23.382;2022-12-07T04:40:09;40.47;;;26.67;;
12774;SDS011;6451;42.630;23.382;2022-12-07T04:42:39;42.40;;;27.73;;
12774;SDS011;6451;42.630;23.382;2022-12-07T04:45:07;45.10;;;26.70;;
12774;SDS011;6451;42.630;23.382;2022-12-07T04:47:37;43.13;;;26.90;;
12774;SDS011;6451;42.630;23.382;2022-12-07T04:50:08;40.57;;;24.90;;
12774;SDS011;6451;42.630;23.382;2022-12-07T04:52:46;38.77;;;25.10;;
12774;SDS011;6451;42.630;23.382;2022-12-07T04:55:13;40.43;;;23.70;;
12774;SDS011;6451;42.630;23.382;2022-12-07T04:57:40;40.23;;;25.13;;
12774;SDS011;6451;42.630;23.382;2022-12-07T05:00:07;43.70;;;25.50;;
12774;SDS011;6451;42.630;23.382;2022-12-07T05:02:35;38.63;;;24.23;;
12774;SDS011;6451;42.630;23.382;2022-12-07T05:05:02;43.93;;;25.93;;
12774;SDS011;6451;42.630;23.382;2022-12-07T05:07:29;41.33;;;25.77;;
12774;SDS011;6451;42.630;23.382;2022-12-07T05:09:57;39.23;;;24.60;;
12774;SDS011;6451;42.630;23.382;2022-12-07T05:12:24;42.37;;;25.53;;
12774;SDS011;6451;42.630;23.382;2022-12-07T05:14:51;43.67;;;25.50;;
12774;SDS011;6451;42.630;23.382;2022-12-07T05:17:18;38.57;;;24.70;;
12774;SDS011;6451;42.630;23.382;2022-12-07T05:19:44;42.53;;;25.00;;
12774;SDS011;6451;42.630;23.382;2022-12-07T05:22:11;40.33;;;25.67;;
12774;SDS011;6451;42.630;23.382;2022-12-07T05:24:39;40.87;;;24.57;;
12774;SDS011;6451;42.630;23.382;2022-12-07T05:27:07;37.30;;;24.07;;
12774;SDS011;6451;42.630;23.382;2022-12-07T05:29:34;39.10;;;24.17;;
12774;SDS011;6451;42.630;23.382;2022-12-07T05:32:01;40.13;;;25.33;;
12774;SDS011;6451;42.630;23.382;2022-12-07T05:34:28;49.33;;;26.97;;
12774;SDS011;6451;42.630;23.382;2022-12-07T05:36:54;43.60;;;27.60;;
12774;SDS011;6451;42.630;23.382;2022-12-07T05:39:21;40.57;;;26.13;;
12774;SDS011;6451;42.630;23.382;2022-12-07T05:41:48;42.33;;;26.57;;
12774;SDS011;6451;42.630;23.382;2022-12-07T05:44:33;40.70;;;26.33;;
12774;SDS011;6451;42.630;23.382;2022-12-07T05:47:01;44.73;;;27.13;;
12774;SDS011;6451;42.630;23.382;2022-12-07T05:49:28;39.43;;;25.27;;
12774;SDS011;6451;42.630;23.382;2022-12-07T05:51:55;43.43;;;26.37;;
12774;SDS011;6451;42.630;23.382;2022-12-07T05:54:22;48.03;;;28.30;;
12774;SDS011;6451;42.630;23.382;2022-12-07T05:56:49;42.03;;;26.57;;
12774;SDS011;6451;42.630;23.382;2022-12-07T05:59:16;41.93;;;26.07;;
12774;SDS011;6451;42.630;23.382;2022-12-07T06:01:50;40.90;;;24.93;;
12774;SDS011;6451;42.630;23.382;2022-12-07T06:04:17;36.43;;;24.13;;
12774;SDS011;6451;42.630;23.382;2022-12-07T06:06:44;36.23;;;24.37;;
12774;SDS011;6451;42.630;23.382;2022-12-07T06:09:11;36.33;;;23.93;;
12774;SDS011;6451;42.630;23.382;2022-12-07T06:11:38;40.27;;;24.27;;
12774;SDS011;6451;42.630;23.382;2022-12-07T06:14:34;37.30;;;23.73;;
12774;SDS011;6451;42.630;23.382;2022-12-07T06:17:05;40.77;;;24.87;;
12774;SDS011;6451;42.630;23.382;2022-12-07T06:19:33;44.10;;;26.43;;
12774;SDS011;6451;42.630;23.382;2022-12-07T06:22:01;42.70;;;26.40;;
12774;SDS011;6451;42.630;23.382;2022-12-07T06:24:27;43.43;;;25.43;;
12774;SDS011;6451;42.630;23.382;2022-12-07T06:26:55;40.30;;;25.43;;
12774;SDS011;6451;42.630;23.382;2022-12-07T06:29:22;43.77;;;28.33;;
12774;SDS011;6451;42.630;23.382;2022-12-07T06:31:49;43.10;;;27.40;;
12774;SDS011;6451;42.630;23.382;2022-12-07T06:34:18;43.47;;;26.87;;
12774;SDS011;6451;42.630;23.382;2022-12-07T06:36:47;38.77;;;26.47;;
12774;SDS011;6451;42.630;23.382;2022-12-07T06:39:17;44.00;;;27.40;;
12774;SDS011;6451;42.630;23.382;2022-12-07T06:41:44;42.00;;;28.30;;
12774;SDS011;6451;42.630;23.382;2022-12-07T06:44:11;42.53;;;27.47;;
12774;SDS011;6451;42.630;23.382;2022-12-07T06:46:38;46.13;;;28.10;;
12774;SDS011;6451;42.630;23.382;2022-12-07T06:49:07;44.03;;;28.73;;
12774;SDS011;6451;42.630;23.382;2022-12-07T06:51:35;47.10;;;28.70;;
12774;SDS011;6451;42.630;23.382;2022-12-07T06:54:06;44.90;;;28.10;;
12774;SDS011;6451;42.630;23.382;2022-12-07T06:56:33;43.73;;;27.67;;
12774;SDS011;6451;42.630;23.382;2022-12-07T06:59:00;48.00;;;27.50;;
12774;SDS011;6451;42.630;23.382;2022-12-07T07:01:27;46.67;;;27.20;;
12774;SDS011;6451;42.630;23.382;2022-12-07T07:03:54;45.07;;;28.07;;
12774;SDS011;6451;42.630;23.382;2022-12-07T07:06:21;45.60;;;27.20;;
12774;SDS011;6451;42.630;23.382;2022-12-07T07:08:49;43.10;;;26.70;;
12774;SDS011;6451;42.630;23.382;2022-12-07T07:11:17;47.73;;;27.57;;
12774;SDS011;6451;42.630;23.382;2022-12-07T07:13:44;41.67;;;27.43;;
12774;SDS011;6451;42.630;23.382;2022-12-07T07:16:11;46.73;;;27.43;;
12774;SDS011;6451;42.630;23.382;2022-12-07T07:18:39;44.73;;;26.73;;
12774;SDS011;6451;42.630;23.382;2022-12-07T07:21:06;43.87;;;28.13;;
12774;SDS011;6451;42.630;23.382;2022-12-07T07:23:33;44.47;;;28.27;;
12774;SDS011;6451;42.630;23.382;2022-12-07T07:26:01;44.30;;;28.23;;
12774;SDS011;6451;42.630;23.382;2022-12-07T07:28:29;46.13;;;27.37;;
12774;SDS011;6451;42.630;23.382;2022-12-07T07:30:57;46.37;;;28.33;;
12774;SDS011;6451;42.630;23.382;2022-12-07T07:33:24;44.10;;;27.80;;
12774;SDS011;6451;42.630;23.382;2022-12-07T07:35:51;47.23;;;27.90;;
12774;SDS011;6451;42.630;23.382;2022-12-07T07:38:18;47.33;;;28.63;;
12774;SDS011;6451;42.630;23.382;2022-12-07T07:40:45;44.57;;;27.50;;
12774;SDS011;6451;42.630;23.382;2022-12-07T07:43:13;42.07;;;26.40;;
12774;SDS011;6451;42.630;23.382;2022-12-07T07:45:40;45.07;;;27.23;;
12774;SDS011;6451;42.630;23.382;2022-12-07T07:48:06;45.13;;;26.83;;
12774;SDS011;6451;42.630;23.382;2022-12-07T07:50:33;44.53;;;28.17;;
12774;SDS011;6451;42.630;23.382;2022-12-07T07:53:00;45.37;;;27.90;;
12774;SDS011;6451;42.630;23.382;2022-12-07T07:55:28;42.27;;;26.43;;
12774;SDS011;6451;42.630;23.382;2022-12-07T07:57:56;44.53;;;26.93;;
12774;SDS011;6451;42.630;23.382;2022-12-07T08:00:30;43.10;;;26.63;;
12774;SDS011;6451;42.630;23.382;2022-12-07T08:03:03;39.50;;;26.77;;
12774;SDS011;6451;42.630;23.382;2022-12-07T08:05:31;37.90;;;26.30;;
12774;SDS011;6451;42.630;23.382;2022-12-07T08:07:59;42.40;;;26.80;;
12774;SDS011;6451;42.630;23.382;2022-12-07T08:10:26;41.63;;;25.20;;
12774;SDS011;6451;42.630;23.382;2022-12-07T08:15:50;38.70;;;22.67;;
12774;SDS011;6451;42.630;23.382;2022-12-07T08:18:19;35.10;;;22.93;;
12774;SDS011;6451;42.630;23.382;2022-12-07T08:20:46;42.13;;;24.93;;
12774;SDS011;6451;42.630;23.382;2022-12-07T08:23:13;39.73;;;23.27;;
12774;SDS011;6451;42.630;23.382;2022-12-07T08:25:41;42.00;;;24.40;;
12774;SDS011;6451;42.630;23.382;2022-12-07T08:28:08;40.77;;;24.20;;
12774;SDS011;6451;42.630;23.382;2022-12-07T08:30:35;42.80;;;24.10;;
12774;SDS011;6451;42.630;23.382;2022-12-07T08:33:03;38.90;;;23.50;;
12774;SDS011;6451;42.630;23.382;2022-12-07T08:35:32;36.53;;;23.53;;
12774;SDS011;6451;42.630;23.382;2022-12-07T08:37:59;37.63;;;24.00;;
12774;SDS011;6451;42.630;23.382;2022-12-07T08:40:27;33.17;;;22.40;;
12774;SDS011;6451;42.630;23.382;2022-12-07T08:42:54;38.37;;;24.03;;
12774;SDS011;6451;42.630;23.382;2022-12-07T08:45:22;36.17;;;23.47;;
12774;SDS011;6451;42.630;23.382;2022-12-07T08:47:50;39.00;;;23.77;;
12774;SDS011;6451;42.630;23.382;2022-12-07T08:50:21;39.50;;;23.90;;
12774;SDS011;6451;42.630;23.382;2022-12-07T08:52:49;34.90;;;22.40;;
12774;SDS011;6451;42.630;23.382;2022-12-07T08:55:20;35.63;;;23.20;;
12774;SDS011;6451;42.630;23.382;2022-12-07T08:57:47;33.37;;;23.27;;
12774;SDS011;6451;42.630;23.382;2022-12-07T09:00:14;31.93;;;21.70;;
12774;SDS011;6451;42.630;23.382;2022-12-07T09:02:42;34.00;;;22.27;;
12774;SDS011;6451;42.630;23.382;2022-12-07T09:05:09;39.83;;;24.60;;
12774;SDS011;6451;42.630;23.382;2022-12-07T09:07:40;36.10;;;23.33;;
12774;SDS011;6451;42.630;23.382;2022-12-07T09:10:09;39.73;;;26.77;;
12774;SDS011;6451;42.630;23.382;2022-12-07T09:12:36;40.33;;;24.37;;
12774;SDS011;6451;42.630;23.382;2022-12-07T09:15:04;39.67;;;23.90;;
12774;SDS011;6451;42.630;23.382;2022-12-07T09:17:32;34.93;;;23.77;;
12774;SDS011;6451;42.630;23.382;2022-12-07T09:19:59;39.20;;;24.53;;
12774;SDS011;6451;42.630;23.382;2022-12-07T09:22:28;40.80;;;23.60;;
12774;SDS011;6451;42.630;23.382;2022-12-07T09:24:56;33.43;;;23.40;;
12774;SDS011;6451;42.630;23.382;2022-12-07T09:27:24;38.30;;;24.43;;
12774;SDS011;6451;42.630;23.382;2022-12-07T09:29:52;38.93;;;23.40;;
12774;SDS011;6451;42.630;23.382;2022-12-07T09:32:20;36.23;;;23.50;;
12774;SDS011;6451;42.630;23.382;2022-12-07T09:34:48;38.83;;;24.37;;
12774;SDS011;6451;42.630;23.382;2022-12-07T09:37:15;41.20;;;25.13;;
12774;SDS011;6451;42.630;23.382;2022-12-07T09:39:42;37.00;;;24.17;;
12774;SDS011;6451;42.630;23.382;2022-12-07T09:42:10;37.00;;;23.93;;
12774;SDS011;6451;42.630;23.382;2022-12-07T09:44:52;31.37;;;22.87;;
12774;SDS011;6451;42.630;23.382;2022-12-07T09:47:19;35.60;;;23.63;;
12774;SDS011;6451;42.630;23.382;2022-12-07T09:49:46;36.60;;;23.20;;
12774;SDS011;6451;42.630;23.382;2022-12-07T09:52:19;33.33;;;22.43;;
12774;SDS011;6451;42.630;23.382;2022-12-07T09:54:51;35.93;;;23.17;;
12774;SDS011;6451;42.630;23.382;2022-12-07T09:57:27;36.50;;;22.53;;
12774;SDS011;6451;42.630;23.382;2022-12-07T09:59:57;32.43;;;21.90;;
12774;SDS011;6451;42.630;23.382;2022-12-07T10:02:34;36.43;;;23.20;;
12774;SDS011;6451;42.630;23.382;2022-12-07T10:05:04;34.13;;;23.20;;
12774;SDS011;6451;42.630;23.382;2022-12-07T10:07:32;33.73;;;22.67;;
12774;SDS011;6451;42.630;23.382;2022-12-07T10:10:01;33.43;;;20.80;;
12774;SDS011;6451;42.630;23.382;2022-12-07T10:12:34;30.47;;;20.93;;
12774;SDS011;6451;42.630;23.382;2022-12-07T10:15:19;35.90;;;22.53;;
12774;SDS011;6451;42.630;23.382;2022-12-07T10:17:47;35.53;;;20.60;;
12774;SDS011;6451;42.630;23.382;2022-12-07T10:20:20;32.80;;;20.77;;
12774;SDS011;6451;42.630;23.382;2022-12-07T10:22:59;34.10;;;21.33;;
12774;SDS011;6451;42.630;23.382;2022-12-07T10:25:28;30.10;;;18.33;;
12774;SDS011;6451;42.630;23.382;2022-12-07T10:28:09;27.97;;;17.90;;
12774;SDS011;6451;42.630;23.382;2022-12-07T10:30:49;25.00;;;17.97;;
12774;SDS011;6451;42.630;23.382;2022-12-07T10:33:27;30.17;;;20.60;;
12774;SDS011;6451;42.630;23.382;2022-12-07T10:35:59;28.23;;;19.07;;
12774;SDS011;6451;42.630;23.382;2022-12-07T10:38:28;32.87;;;19.13;;
12774;SDS011;6451;42.630;23.382;2022-12-07T10:41:04;30.00;;;18.47;;
12774;SDS011;6451;42.630;23.382;2022-12-07T10:43:34;29.90;;;20.23;;
12774;SDS011;6451;42.630;23.382;2022-12-07T10:46:13;27.50;;;19.67;;
12774;SDS011;6451;42.630;23.382;2022-12-07T10:48:55;32.83;;;20.13;;
12774;SDS011;6451;42.630;23.382;2022-12-07T10:51:31;29.57;;;19.97;;
12774;SDS011;6451;42.630;23.382;2022-12-07T10:54:10;29.27;;;19.10;;
12774;SDS011;6451;42.630;23.382;2022-12-07T10:59:44;33.97;;;20.33;;
12774;SDS011;6451;42.630;23.382;2022-12-07T11:02:26;55.60;;;32.33;;
12774;SDS011;6451;42.630;23.382;2022-12-07T11:05:15;29.90;;;19.83;;
12774;SDS011;6451;42.630;23.382;2022-12-07T11:07:52;30.40;;;19.33;;
12774;SDS011;6451;42.630;23.382;2022-12-07T11:10:29;31.00;;;19.67;;
12774;SDS011;6451;42.630;23.382;2022-12-07T11:13:11;29.33;;;18.70;;
12774;SDS011;6451;42.630;23.382;2022-12-07T11:15:59;30.77;;;19.87;;
12774;SDS011;6451;42.630;23.382;2022-12-07T11:18:34;28.40;;;19.53;;
12774;SDS011;6451;42.630;23.382;2022-12-07T11:21:07;30.13;;;20.07;;
12774;SDS011;6451;42.630;23.382;2022-12-07T11:23:45;36.27;;;21.40;;
12774;SDS011;6451;42.630;23.382;2022-12-07T11:26:18;33.53;;;20.70;;
12774;SDS011;6451;42.630;23.382;2022-12-07T11:29:05;31.67;;;21.27;;
12774;SDS011;6451;42.630;23.382;2022-12-07T11:31:48;33.73;;;20.50;;
12774;SDS011;6451;42.630;23.382;2022-12-07T11:34:25;29.37;;;19.57;;
12774;SDS011;6451;42.630;23.382;2022-12-07T11:37:03;38.67;;;23.43;;
12774;SDS011;6451;42.630;23.382;2022-12-07T11:39:39;33.40;;;22.20;;
12774;SDS011;6451;42.630;23.382;2022-12-07T11:42:13;38.03;;;23.07;;
12774;SDS011;6451;42.630;23.382;2022-12-07T11:44:45;35.77;;;22.50;;
12774;SDS011;6451;42.630;23.382;2022-12-07T11:47:22;36.23;;;24.17;;
12774;SDS011;6451;42.630;23.382;2022-12-07T11:49:56;36.10;;;23.10;;
12774;SDS011;6451;42.630;23.382;2022-12-07T11:52:39;31.47;;;22.23;;
12774;SDS011;6451;42.630;23.382;2022-12-07T11:55:15;34.07;;;23.17;;
12774;SDS011;6451;42.630;23.382;2022-12-07T11:57:48;34.33;;;21.93;;
12774;SDS011;6451;42.630;23.382;2022-12-07T12:02:52;33.97;;;21.60;;
12774;SDS011;6451;42.630;23.382;2022-12-07T12:05:25;38.73;;;21.67;;
12774;SDS011;6451;42.630;23.382;2022-12-07T12:51:52;32.20;;;20.03;;
12774;SDS011;6451;42.630;23.382;2022-12-07T12:54:21;29.23;;;20.07;;
12774;SDS011;6451;42.630;23.382;2022-12-07T12:56:51;26.80;;;18.20;;
12774;SDS011;6451;42.630;23.382;2022-12-07T12:59:25;25.27;;;18.27;;
12774;SDS011;6451;42.630;23.382;2022-12-07T13:01:55;26.10;;;16.77;;
12774;SDS011;6451;42.630;23.382;2022-12-07T13:13:30;38.10;;;19.47;;
12774;SDS011;6451;42.630;23.382;2022-12-07T13:25:09;23.63;;;13.67;;
12774;SDS011;6451;42.630;23.382;2022-12-07T13:27:39;27.80;;;14.10;;
12774;SDS011;6451;42.630;23.382;2022-12-07T13:32:37;19.50;;;14.67;;
12774;SDS011;6451;42.630;23.382;2022-12-07T13:37:57;21.80;;;14.03;;
12774;SDS011;6451;42.630;23.382;2022-12-07T13:40:25;22.40;;;13.93;;
12774;SDS011;6451;42.630;23.382;2022-12-07T13:42:58;20.83;;;13.80;;
12774;SDS011;6451;42.630;23.382;2022-12-07T13:45:27;27.57;;;14.73;;
12774;SDS011;6451;42.630;23.382;2022-12-07T13:48:10;27.67;;;15.63;;
12774;SDS011;6451;42.630;23.382;2022-12-07T13:50:42;24.93;;;15.40;;
12774;SDS011;6451;42.630;23.382;2022-12-07T13:53:11;27.20;;;15.87;;
12774;SDS011;6451;42.630;23.382;2022-12-07T13:55:46;24.33;;;16.57;;
12774;SDS011;6451;42.630;23.382;2022-12-07T13:58:13;28.27;;;16.17;;
12774;SDS011;6451;42.630;23.382;2022-12-07T14:00:40;26.60;;;16.23;;
12774;SDS011;6451;42.630;23.382;2022-12-07T14:03:22;28.83;;;16.57;;
12774;SDS011;6451;42.630;23.382;2022-12-07T14:06:04;27.83;;;16.43;;
12774;SDS011;6451;42.630;23.382;2022-12-07T14:08:33;25.70;;;15.90;;
12774;SDS011;6451;42.630;23.382;2022-12-07T14:11:02;28.47;;;17.07;;
12774;SDS011;6451;42.630;23.382;2022-12-07T14:13:30;27.87;;;18.10;;
12774;SDS011;6451;42.630;23.382;2022-12-07T14:15:59;31.50;;;17.63;;
12774;SDS011;6451;42.630;23.382;2022-12-07T14:18:27;27.33;;;17.43;;
12774;SDS011;6451;42.630;23.382;2022-12-07T14:21:05;26.90;;;17.13;;
12774;SDS011;6451;42.630;23.382;2022-12-07T14:23:40;23.87;;;15.47;;
12774;SDS011;6451;42.630;23.382;2022-12-07T14:26:10;25.60;;;15.53;;
12774;SDS011;6451;42.630;23.382;2022-12-07T14:28:40;23.47;;;15.20;;
12774;SDS011;6451;42.630;23.382;2022-12-07T14:31:10;21.30;;;13.60;;
12774;SDS011;6451;42.630;23.382;2022-12-07T14:33:38;22.90;;;13.97;;
12774;SDS011;6451;42.630;23.382;2022-12-07T14:36:07;21.43;;;14.57;;
12774;SDS011;6451;42.630;23.382;2022-12-07T14:38:35;22.27;;;14.30;;
12774;SDS011;6451;42.630;23.382;2022-12-07T14:41:03;17.90;;;13.10;;
12774;SDS011;6451;42.630;23.382;2022-12-07T14:43:49;23.57;;;13.93;;
12774;SDS011;6451;42.630;23.382;2022-12-07T14:46:16;21.17;;;12.60;;
12774;SDS011;6451;42.630;23.382;2022-12-07T14:48:43;19.33;;;13.50;;
12774;SDS011;6451;42.630;23.382;2022-12-07T14:51:10;24.87;;;14.87;;
12774;SDS011;6451;42.630;23.382;2022-12-07T14:53:39;27.70;;;15.20;;
12774;SDS011;6451;42.630;23.382;2022-12-07T14:56:09;27.47;;;15.60;;
12774;SDS011;6451;42.630;23.382;2022-12-07T14:58:36;30.93;;;16.63;;
12774;SDS011;6451;42.630;23.382;2022-12-07T15:01:04;33.17;;;17.47;;
12774;SDS011;6451;42.630;23.382;2022-12-07T15:03:31;34.93;;;16.60;;
12774;SDS011;6451;42.630;23.382;2022-12-07T15:05:59;24.63;;;15.83;;
12774;SDS011;6451;42.630;23.382;2022-12-07T15:08:26;33.50;;;19.47;;
12774;SDS011;6451;42.630;23.382;2022-12-07T15:10:53;31.70;;;17.10;;
12774;SDS011;6451;42.630;23.382;2022-12-07T15:13:20;28.63;;;17.07;;
12774;SDS011;6451;42.630;23.382;2022-12-07T15:16:07;34.57;;;19.83;;
12774;SDS011;6451;42.630;23.382;2022-12-07T15:18:38;38.37;;;19.07;;
12774;SDS011;6451;42.630;23.382;2022-12-07T15:21:09;33.23;;;20.20;;
12774;SDS011;6451;42.630;23.382;2022-12-07T15:23:38;37.27;;;19.87;;
12774;SDS011;6451;42.630;23.382;2022-12-07T15:26:05;43.07;;;20.77;;
12774;SDS011;6451;42.630;23.382;2022-12-07T15:28:33;37.30;;;20.77;;
12774;SDS011;6451;42.630;23.382;2022-12-07T15:30:59;34.07;;;18.83;;
12774;SDS011;6451;42.630;23.382;2022-12-07T15:33:28;40.50;;;20.43;;
12774;SDS011;6451;42.630;23.382;2022-12-07T15:35:55;47.07;;;22.47;;
12774;SDS011;6451;42.630;23.382;2022-12-07T15:38:22;37.00;;;20.53;;
12774;SDS011;6451;42.630;23.382;2022-12-07T15:40:51;52.40;;;21.67;;
12774;SDS011;6451;42.630;23.382;2022-12-07T15:43:18;44.33;;;21.40;;
12774;SDS011;6451;42.630;23.382;2022-12-07T15:46:02;37.63;;;21.20;;
12774;SDS011;6451;42.630;23.382;2022-12-07T15:48:31;39.93;;;22.40;;
12774;SDS011;6451;42.630;23.382;2022-12-07T15:51:01;38.50;;;20.73;;
12774;SDS011;6451;42.630;23.382;2022-12-07T15:53:29;31.37;;;19.67;;
12774;SDS011;6451;42.630;23.382;2022-12-07T15:55:57;41.40;;;20.50;;
12774;SDS011;6451;42.630;23.382;2022-12-07T15:58:24;36.90;;;19.17;;
12774;SDS011;6451;42.630;23.382;2022-12-07T16:00:51;34.83;;;18.63;;
12774;SDS011;6451;42.630;23.382;2022-12-07T16:03:18;39.33;;;19.90;;